createdAt,value
2019-02-06T00:01:43.050Z,19.55
2019-02-06T00:04:10.412Z,19.27
2019-02-06T00:06:37.539Z,21.87
2019-02-06T00:09:10.783Z,21.57
2019-02-06T00:11:38.083Z,20.95
2019-02-06T00:14:05.849Z,20.37
2019-02-06T00:16:33.203Z,21.73
2019-02-06T00:19:00.435Z,21.35
2019-02-06T00:21:27.652Z,21.57
2019-02-06T00:23:55.039Z,21.37
2019-02-06T00:26:22.187Z,19.63
2019-02-06T00:28:49.543Z,19.57
2019-02-06T00:31:16.818Z,20.27
2019-02-06T00:33:44.317Z,19.50
2019-02-06T00:36:11.858Z,19.87
2019-02-06T00:38:39.327Z,20.03
2019-02-06T00:41:06.954Z,20.48
2019-02-06T00:43:34.252Z,19.17
2019-02-06T00:46:01.591Z,21.42
2019-02-06T00:48:28.623Z,19.90
2019-02-06T00:50:55.595Z,21.53
2019-02-06T00:53:23.825Z,21.50
2019-02-06T00:55:51.164Z,21.25
2019-02-06T00:58:18.894Z,20.07
2019-02-06T01:00:46.537Z,21.00
2019-02-06T01:03:14.427Z,19.42
2019-02-06T01:05:41.752Z,19.62
2019-02-06T01:08:09.530Z,21.05
2019-02-06T01:10:37.144Z,20.10
2019-02-06T01:13:04.497Z,16.62
2019-02-06T01:15:32.875Z,18.87
2019-02-06T01:18:00.155Z,21.02
2019-02-06T01:20:27.407Z,19.85
2019-02-06T01:22:54.611Z,19.50
2019-02-06T01:25:21.730Z,17.95
2019-02-06T01:27:50.015Z,18.40
2019-02-06T01:30:25.312Z,17.77
2019-02-06T01:32:52.457Z,20.12
2019-02-06T01:35:19.628Z,19.65
2019-02-06T01:37:47.015Z,18.55
2019-02-06T01:40:15.758Z,19.15
2019-02-06T01:42:44.033Z,18.98
2019-02-06T01:45:12.467Z,17.45
2019-02-06T01:47:39.694Z,17.87
2019-02-06T01:50:09.982Z,18.95
2019-02-06T01:52:37.713Z,17.15
2019-02-06T01:55:05.813Z,17.40
2019-02-06T01:57:32.878Z,17.67
2019-02-06T02:00:00.216Z,16.87
2019-02-06T02:02:27.884Z,18.92
2019-02-06T02:04:55.559Z,19.07
2019-02-06T02:07:22.705Z,20.50
2019-02-06T02:09:50.247Z,19.02
2019-02-06T02:12:17.588Z,20.92
2019-02-06T02:14:44.763Z,20.72
2019-02-06T02:17:12.116Z,21.90
2019-02-06T02:19:39.286Z,20.55
2019-02-06T02:22:06.709Z,21.50
2019-02-06T02:24:33.727Z,23.52
2019-02-06T02:27:00.798Z,21.85
2019-02-06T02:29:27.795Z,25.30
2019-02-06T02:31:55.213Z,24.25
2019-02-06T02:34:22.316Z,24.75
2019-02-06T02:36:49.510Z,24.57
2019-02-06T02:39:16.687Z,23.40
2019-02-06T02:41:43.799Z,23.57
2019-02-06T02:44:11.253Z,25.72
2019-02-06T02:46:39.133Z,24.18
2019-02-06T02:49:06.385Z,24.77
2019-02-06T02:51:34.262Z,26.05
2019-02-06T02:54:01.325Z,26.33
2019-02-06T02:56:28.559Z,28.23
2019-02-06T02:58:55.688Z,26.48
2019-02-06T03:01:35.033Z,26.37
2019-02-06T03:04:09.990Z,27.32
2019-02-06T03:06:38.841Z,28.57
2019-02-06T03:09:10.764Z,28.07
2019-02-06T03:11:37.931Z,27.95
2019-02-06T03:14:05.044Z,28.23
2019-02-06T03:16:32.263Z,28.50
2019-02-06T03:18:59.691Z,26.95
2019-02-06T03:21:26.783Z,29.50
2019-02-06T03:23:54.011Z,29.90
2019-02-06T03:26:21.196Z,30.05
2019-02-06T03:28:48.284Z,29.18
2019-02-06T03:31:15.477Z,28.42
2019-02-06T03:34:04.786Z,28.83
2019-02-06T03:36:39.892Z,28.25
2019-02-06T03:39:00.841Z,29.82
2019-02-06T03:41:27.963Z,28.02
2019-02-06T03:43:55.446Z,31.05
2019-02-06T03:46:22.863Z,28.87
2019-02-06T03:48:50.671Z,27.70
2019-02-06T03:51:18.238Z,28.52
2019-02-06T03:53:45.412Z,30.55
2019-02-06T03:56:13.712Z,30.32
2019-02-06T03:58:41.717Z,29.80
2019-02-06T04:01:11.375Z,29.00
2019-02-06T04:03:38.005Z,30.05
2019-02-06T04:06:05.267Z,29.57
2019-02-06T04:08:32.543Z,30.35
2019-02-06T04:10:59.667Z,28.95
2019-02-06T04:13:27.568Z,30.20
2019-02-06T04:15:54.632Z,29.18
2019-02-06T04:18:21.873Z,29.80
2019-02-06T04:20:49.183Z,29.25
2019-02-06T04:23:17.451Z,28.15
2019-02-06T04:25:44.882Z,29.23
2019-02-06T04:28:12.803Z,28.17
2019-02-06T04:30:40.231Z,28.47
2019-02-06T04:33:07.289Z,28.27
2019-02-06T04:35:34.443Z,28.42
2019-02-06T04:38:01.822Z,27.52
2019-02-06T04:40:29.188Z,25.27
2019-02-06T04:42:56.438Z,28.38
2019-02-06T04:45:23.571Z,27.07
2019-02-06T04:47:50.737Z,27.85
2019-02-06T04:50:18.054Z,29.75
2019-02-06T04:52:45.528Z,27.32
2019-02-06T04:55:13.748Z,26.77
2019-02-06T04:57:40.849Z,27.85
2019-02-06T05:00:13.038Z,28.80
2019-02-06T05:02:40.295Z,28.25
2019-02-06T05:05:07.954Z,27.02
2019-02-06T05:07:35.486Z,26.97
2019-02-06T05:10:03.175Z,28.17
2019-02-06T05:12:30.550Z,25.77
2019-02-06T05:14:58.442Z,25.37
2019-02-06T05:17:25.515Z,27.02
2019-02-06T05:19:52.692Z,27.75
2019-02-06T05:22:20.074Z,26.12
2019-02-06T05:24:47.130Z,26.42
2019-02-06T05:27:14.460Z,27.20
2019-02-06T05:29:41.923Z,27.10
2019-02-06T05:32:09.367Z,26.73
2019-02-06T05:34:36.907Z,26.17
2019-02-06T05:37:04.376Z,26.20
2019-02-06T05:39:31.488Z,25.52
2019-02-06T05:41:58.601Z,25.72
2019-02-06T05:44:25.718Z,27.27
2019-02-06T05:46:52.833Z,26.70
2019-02-06T05:49:20.117Z,26.97
2019-02-06T05:51:47.766Z,25.97
2019-02-06T05:54:15.496Z,26.23
2019-02-06T05:56:44.194Z,24.15
2019-02-06T05:59:11.331Z,25.68
2019-02-06T06:01:38.635Z,25.65
2019-02-06T06:04:05.985Z,25.37
2019-02-06T06:06:33.147Z,25.15
2019-02-06T06:09:00.370Z,25.68
2019-02-06T06:11:27.512Z,25.15
2019-02-06T06:13:55.074Z,25.15
2019-02-06T06:16:22.224Z,25.35
2019-02-06T06:18:49.374Z,25.88
2019-02-06T06:21:16.558Z,22.17
2019-02-06T06:23:44.183Z,22.60
2019-02-06T06:26:11.603Z,25.30
2019-02-06T06:28:38.716Z,23.83
2019-02-06T06:31:06.068Z,25.15
2019-02-06T06:33:33.781Z,23.45
2019-02-06T06:36:01.258Z,23.67
2019-02-06T06:38:28.784Z,24.82
2019-02-06T06:40:56.439Z,23.50
2019-02-06T06:43:23.646Z,23.77
2019-02-06T06:45:51.051Z,22.93
2019-02-06T06:48:18.376Z,22.13
2019-02-06T06:50:45.931Z,22.42
2019-02-06T06:53:13.083Z,21.70
2019-02-06T06:55:40.363Z,23.65
2019-02-06T06:58:08.065Z,21.37
2019-02-06T07:00:36.064Z,22.25
2019-02-06T07:03:03.513Z,21.55
2019-02-06T07:05:31.074Z,22.27
2019-02-06T07:08:09.328Z,21.42
2019-02-06T07:10:27.475Z,22.35
2019-02-06T07:12:54.463Z,22.13
2019-02-06T07:15:23.974Z,20.80
2019-02-06T07:17:51.698Z,19.87
2019-02-06T07:20:19.235Z,20.55
2019-02-06T07:22:46.540Z,22.10
2019-02-06T07:25:15.584Z,20.65
2019-02-06T07:27:43.209Z,20.88
2019-02-06T07:30:22.800Z,19.48
2019-02-06T07:32:56.893Z,19.07
2019-02-06T07:35:24.503Z,20.17
2019-02-06T07:37:51.857Z,18.98
2019-02-06T07:40:19.046Z,18.80
2019-02-06T07:42:46.325Z,19.62
2019-02-06T07:45:15.322Z,18.15
2019-02-06T07:47:42.961Z,20.90
2019-02-06T07:50:16.198Z,19.67
2019-02-06T07:52:43.524Z,19.40
2019-02-06T07:55:11.327Z,19.23
2019-02-06T07:57:38.759Z,17.73
2019-02-06T08:00:06.454Z,16.10
2019-02-06T08:02:34.756Z,17.30
2019-02-06T08:05:02.065Z,15.20
2019-02-06T08:07:29.282Z,16.25
2019-02-06T08:09:56.711Z,17.20
2019-02-06T08:12:23.718Z,17.62
2019-02-06T08:14:51.153Z,15.93
2019-02-06T08:17:18.288Z,17.07
2019-02-06T08:19:45.712Z,15.83
2019-02-06T08:22:13.015Z,16.75
2019-02-06T08:24:40.145Z,14.63
2019-02-06T08:27:07.975Z,16.80
2019-02-06T08:29:35.120Z,13.65
2019-02-06T08:32:03.062Z,15.85
2019-02-06T08:34:30.666Z,15.00
2019-02-06T08:36:58.043Z,16.48
2019-02-06T08:39:25.150Z,15.68
2019-02-06T08:41:52.642Z,14.43
2019-02-06T08:44:20.001Z,14.30
2019-02-06T08:46:47.154Z,13.10
2019-02-06T08:49:14.499Z,15.35
2019-02-06T08:51:41.675Z,14.13
2019-02-06T08:54:13.699Z,12.88
2019-02-06T08:56:41.170Z,12.73
2019-02-06T08:59:09.856Z,14.58
2019-02-06T09:01:37.260Z,13.68
2019-02-06T09:04:04.811Z,14.10
2019-02-06T09:06:32.182Z,12.88
2019-02-06T09:09:00.175Z,14.05
2019-02-06T09:11:27.479Z,14.03
2019-02-06T09:13:54.480Z,12.50
2019-02-06T09:16:22.590Z,12.80
2019-02-06T09:18:49.931Z,13.03
2019-02-06T09:21:17.399Z,13.10
2019-02-06T09:23:44.640Z,12.85
2019-02-06T09:26:12.097Z,12.60
2019-02-06T09:28:41.565Z,12.40
2019-02-06T09:31:08.692Z,12.05
2019-02-06T09:33:35.904Z,13.32
2019-02-06T09:36:03.249Z,11.55
2019-02-06T09:38:30.723Z,12.10
2019-02-06T09:40:57.981Z,13.38
2019-02-06T09:43:27.584Z,12.45
2019-02-06T09:45:56.943Z,12.47
2019-02-06T09:48:23.786Z,12.00
2019-02-06T09:50:50.874Z,13.13
2019-02-06T09:53:18.039Z,12.53
2019-02-06T09:55:45.145Z,13.00
2019-02-06T09:58:12.160Z,12.73
2019-02-06T10:00:39.693Z,13.03
2019-02-06T10:03:07.050Z,11.90
2019-02-06T10:05:34.439Z,11.68
2019-02-06T10:08:01.591Z,11.33
2019-02-06T10:10:30.133Z,10.50
2019-02-06T10:12:57.800Z,10.95
2019-02-06T10:15:27.098Z,11.05
2019-02-06T10:17:56.395Z,11.05
2019-02-06T10:20:25.855Z,11.22
2019-02-06T10:22:53.667Z,10.65
2019-02-06T10:25:21.013Z,10.98
2019-02-06T10:27:48.610Z,10.23
2019-02-06T10:30:20.948Z,11.55
2019-02-06T10:32:49.563Z,10.15
2019-02-06T10:35:17.460Z,10.45
2019-02-06T10:37:46.839Z,10.53
2019-02-06T10:40:14.207Z,11.48
2019-02-06T10:42:41.437Z,10.85
2019-02-06T10:45:09.146Z,10.65
2019-02-06T10:47:36.424Z,11.12
2019-02-06T10:50:04.217Z,10.25
2019-02-06T10:52:31.834Z,10.23
2019-02-06T10:54:59.074Z,10.05
2019-02-06T10:57:26.329Z,10.90
2019-02-06T10:59:53.538Z,10.95
2019-02-06T11:02:20.896Z,9.78
2019-02-06T11:04:48.974Z,10.55
2019-02-06T11:07:16.102Z,10.03
2019-02-06T11:09:46.627Z,11.03
2019-02-06T11:12:12.142Z,11.53
2019-02-06T11:14:39.190Z,9.80
2019-02-06T11:17:06.410Z,11.03
2019-02-06T11:19:33.560Z,10.43
2019-02-06T11:22:00.762Z,11.43
2019-02-06T11:24:27.954Z,10.03
2019-02-06T11:26:54.941Z,10.72
2019-02-06T11:29:22.546Z,11.15
2019-02-06T11:31:49.719Z,11.08
2019-02-06T11:34:17.034Z,11.12
2019-02-06T11:36:44.174Z,11.30
2019-02-06T11:39:17.819Z,10.68
2019-02-06T11:41:45.479Z,10.18
2019-02-06T11:44:13.163Z,10.38
2019-02-06T11:46:40.373Z,10.55
2019-02-06T11:49:07.991Z,9.93
2019-02-06T11:51:35.230Z,10.00
2019-02-06T11:54:02.882Z,10.78
2019-02-06T11:56:30.158Z,9.65
2019-02-06T11:58:57.715Z,9.55
2019-02-06T12:01:30.982Z,9.70
2019-02-06T12:03:58.091Z,9.68
2019-02-06T12:06:25.322Z,10.72
2019-02-06T12:08:52.880Z,9.85
2019-02-06T12:11:19.995Z,9.45
2019-02-06T12:13:47.158Z,10.23
2019-02-06T12:16:14.412Z,10.60
2019-02-06T12:18:41.779Z,10.43
2019-02-06T12:21:09.218Z,10.65
2019-02-06T12:23:36.283Z,10.50
2019-02-06T12:26:04.015Z,11.08
2019-02-06T12:28:31.832Z,10.90
2019-02-06T12:30:59.056Z,11.57
2019-02-06T12:33:27.413Z,11.73
2019-02-06T12:35:54.662Z,11.03
2019-02-06T12:38:21.889Z,12.82
2019-02-06T12:40:49.319Z,12.23
2019-02-06T12:43:16.962Z,11.93
2019-02-06T12:45:44.149Z,11.88
2019-02-06T12:48:11.394Z,10.05
2019-02-06T12:50:38.630Z,11.22
2019-02-06T12:53:05.926Z,10.25
2019-02-06T12:55:34.713Z,11.12
2019-02-06T12:58:02.063Z,11.40
2019-02-06T13:00:30.926Z,10.70
2019-02-06T13:03:00.053Z,10.10
2019-02-06T13:05:27.608Z,10.90
2019-02-06T13:07:54.942Z,10.32
2019-02-06T13:10:33.497Z,11.30
2019-02-06T13:12:51.892Z,10.65
2019-02-06T13:15:19.050Z,11.55
2019-02-06T13:17:46.447Z,11.12
2019-02-06T13:20:20.990Z,11.20
2019-02-06T13:22:48.160Z,10.85
2019-02-06T13:25:15.531Z,11.73
2019-02-06T13:27:42.636Z,11.22
2019-02-06T13:30:13.748Z,10.30
2019-02-06T13:32:41.198Z,11.08
2019-02-06T13:35:09.581Z,9.95
2019-02-06T13:37:36.890Z,9.93
2019-02-06T13:40:07.481Z,11.03
2019-02-06T13:42:34.606Z,11.97
2019-02-06T13:45:02.268Z,11.15
2019-02-06T13:47:29.542Z,11.65
2019-02-06T13:49:57.403Z,10.75
2019-02-06T13:52:25.213Z,11.05
2019-02-06T13:54:52.263Z,10.70
2019-02-06T13:57:19.511Z,10.25
2019-02-06T13:59:46.901Z,8.85
2019-02-06T14:02:14.115Z,10.40
2019-02-06T14:04:41.300Z,9.80
2019-02-06T14:07:08.419Z,9.05
2019-02-06T14:09:35.951Z,9.08
2019-02-06T14:12:03.692Z,9.50
2019-02-06T14:14:30.794Z,9.05
2019-02-06T14:16:57.947Z,9.35
2019-02-06T14:19:25.011Z,9.53
2019-02-06T14:21:52.389Z,8.95
2019-02-06T14:25:17.015Z,10.40
2019-02-06T14:27:50.545Z,9.65
2019-02-06T14:30:38.254Z,9.28
2019-02-06T14:33:22.946Z,8.73
2019-02-06T14:36:26.369Z,9.20
2019-02-06T14:39:35.681Z,9.10
2019-02-06T14:42:35.610Z,8.90
2019-02-06T14:45:59.192Z,8.75
2019-02-06T14:48:50.912Z,9.20
2019-02-06T14:52:03.675Z,9.90
2019-02-06T14:55:03.490Z,9.20
2019-02-06T14:58:03.423Z,9.80
2019-02-06T15:00:59.921Z,9.45
2019-02-06T15:03:48.236Z,9.98
2019-02-06T15:06:57.990Z,8.98
2019-02-06T15:10:09.430Z,9.93
2019-02-06T15:13:18.705Z,9.43
2019-02-06T15:15:54.561Z,9.55
2019-02-06T15:19:03.426Z,9.60
2019-02-06T15:21:41.086Z,10.93
2019-02-06T15:24:55.885Z,10.28
2019-02-06T15:27:34.378Z,11.15
2019-02-06T15:31:09.088Z,11.48
2019-02-06T15:34:10.071Z,9.68
2019-02-06T15:37:07.305Z,9.00
2019-02-06T15:40:16.122Z,10.25
2019-02-06T15:43:40.079Z,10.40
2019-02-06T15:46:23.466Z,10.03
2019-02-06T15:49:22.555Z,10.85
2019-02-06T15:52:24.970Z,9.95
2019-02-06T15:55:46.819Z,10.50
2019-02-06T15:58:36.719Z,10.32
2019-02-06T16:01:31.728Z,11.00
2019-02-06T16:04:59.990Z,11.48
2019-02-06T16:07:52.213Z,11.35
2019-02-06T16:10:46.366Z,11.63
2019-02-06T16:13:40.610Z,11.57
2019-02-06T16:16:33.367Z,11.75
2019-02-06T16:19:28.290Z,12.05
2019-02-06T16:22:41.989Z,12.80
2019-02-06T16:25:28.670Z,12.82
2019-02-06T16:28:05.599Z,12.45
2019-02-06T16:30:53.712Z,12.90
2019-02-06T16:34:04.818Z,13.50
2019-02-06T16:36:59.746Z,14.05
2019-02-06T16:39:39.658Z,13.62
2019-02-06T16:42:54.660Z,13.98
2019-02-06T16:45:35.219Z,13.53
2019-02-06T16:48:27.613Z,15.35
2019-02-06T16:51:29.042Z,15.25
2019-02-06T16:54:41.636Z,14.10
2019-02-06T16:57:37.047Z,16.25
2019-02-06T17:01:17.109Z,16.05
2019-02-06T17:04:03.517Z,15.55
2019-02-06T17:07:02.715Z,15.35
2019-02-06T17:10:02.351Z,16.23
2019-02-06T17:13:05.303Z,17.35
2019-02-06T17:16:17.482Z,19.80
2019-02-06T17:19:04.255Z,17.87
2019-02-06T17:22:01.116Z,18.52
2019-02-06T17:24:44.784Z,18.35
2019-02-06T17:27:59.484Z,17.20
2019-02-06T17:30:47.637Z,17.25
2019-02-06T17:33:27.911Z,18.52
2019-02-06T17:36:10.483Z,19.15
2019-02-06T17:39:08.936Z,19.48
2019-02-06T17:42:01.543Z,19.85
2019-02-06T17:45:29.327Z,21.20
2019-02-06T17:48:46.907Z,19.70
2019-02-06T17:51:42.434Z,22.52
2019-02-06T17:54:25.786Z,20.92
2019-02-06T17:56:53.129Z,23.12
2019-02-06T17:59:20.543Z,21.62
2019-02-06T18:01:51.438Z,21.68
2019-02-06T18:04:27.781Z,22.35
2019-02-06T18:06:55.422Z,23.13
2019-02-06T18:09:23.311Z,23.57
2019-02-06T18:11:51.398Z,24.05
2019-02-06T18:14:18.814Z,23.15
2019-02-06T18:16:45.967Z,24.23
2019-02-06T18:19:13.112Z,23.73
2019-02-06T18:21:40.454Z,24.32
2019-02-06T18:24:07.931Z,26.62
2019-02-06T18:26:40.593Z,25.85
2019-02-06T18:29:08.415Z,25.80
2019-02-06T18:31:35.775Z,26.55
2019-02-06T18:34:06.197Z,23.05
2019-02-06T18:36:33.654Z,24.47
2019-02-06T18:39:00.899Z,26.60
2019-02-06T18:41:28.341Z,26.37
2019-02-06T18:43:55.917Z,25.75
2019-02-06T18:46:23.139Z,26.85
2019-02-06T18:48:50.483Z,26.12
2019-02-06T18:51:17.605Z,27.22
2019-02-06T18:53:44.887Z,27.13
2019-02-06T18:56:12.112Z,28.30
2019-02-06T18:58:39.559Z,28.35
2019-02-06T19:01:06.815Z,27.50
2019-02-06T19:03:38.586Z,27.42
2019-02-06T19:06:05.965Z,25.27
2019-02-06T19:08:33.496Z,28.42
2019-02-06T19:11:01.252Z,26.10
2019-02-06T19:13:28.638Z,26.70
2019-02-06T19:15:56.827Z,27.48
2019-02-06T19:18:24.370Z,27.05
2019-02-06T19:20:51.631Z,26.93
2019-02-06T19:23:19.196Z,25.08
2019-02-06T19:25:47.058Z,26.85
2019-02-06T19:28:14.715Z,27.00
2019-02-06T19:30:42.077Z,26.75
2019-02-06T19:33:09.405Z,28.17
2019-02-06T19:35:37.376Z,26.77
2019-02-06T19:38:05.983Z,22.17
2019-02-06T19:40:34.027Z,26.40
2019-02-06T19:43:02.682Z,26.33
2019-02-06T19:45:31.533Z,27.17
2019-02-06T19:47:59.379Z,28.38
2019-02-06T19:50:29.316Z,27.32
2019-02-06T19:52:56.845Z,29.55
2019-02-06T19:55:27.628Z,29.75
2019-02-06T19:57:54.932Z,26.90
2019-02-06T20:00:25.106Z,28.20
2019-02-06T20:02:54.326Z,29.32
2019-02-06T20:05:21.828Z,28.38
2019-02-06T20:07:49.247Z,28.38
2019-02-06T20:10:19.375Z,30.57
2019-02-06T20:12:46.934Z,30.57
2019-02-06T20:15:15.234Z,29.50
2019-02-06T20:17:42.481Z,27.22
2019-02-06T20:20:13.169Z,28.50
2019-02-06T20:22:41.383Z,29.80
2019-02-06T20:25:10.288Z,27.48
2019-02-06T20:27:37.534Z,28.15
2019-02-06T20:30:07.545Z,28.87
2019-02-06T20:32:38.203Z,29.80
2019-02-06T20:35:07.491Z,28.67
2019-02-06T20:37:34.945Z,27.50
2019-02-06T20:40:02.559Z,28.05
2019-02-06T20:42:30.390Z,27.30
2019-02-06T20:44:57.710Z,26.37
2019-02-06T20:47:24.886Z,26.77
2019-02-06T20:49:52.096Z,27.07
2019-02-06T20:52:19.361Z,26.52
2019-02-06T20:54:46.743Z,26.37
2019-02-06T20:57:15.774Z,24.98
2019-02-06T20:59:43.135Z,26.25
2019-02-06T21:02:11.033Z,25.57
2019-02-06T21:04:41.045Z,26.25
2019-02-06T21:07:08.720Z,26.97
2019-02-06T21:09:36.167Z,26.97
2019-02-06T21:12:04.454Z,26.75
2019-02-06T21:14:31.903Z,26.82
2019-02-06T21:16:59.414Z,26.23
2019-02-06T21:19:28.272Z,26.85
2019-02-06T21:21:55.506Z,25.32
2019-02-06T21:24:23.060Z,26.90
2019-02-06T21:26:50.271Z,27.62
2019-02-06T21:29:17.643Z,27.93
2019-02-06T21:31:45.127Z,26.27
2019-02-06T21:34:12.955Z,27.42
2019-02-06T21:36:40.627Z,27.73
2019-02-06T21:39:08.569Z,26.85
2019-02-06T21:41:37.266Z,28.07
2019-02-06T21:44:04.886Z,27.52
2019-02-06T21:46:32.379Z,27.07
2019-02-06T21:49:00.650Z,28.15
2019-02-06T21:51:28.337Z,28.05
2019-02-06T21:53:56.239Z,26.95
2019-02-06T21:56:23.798Z,27.62
2019-02-06T21:58:51.048Z,28.85
2019-02-06T22:01:27.683Z,28.77
2019-02-06T22:03:54.979Z,30.02
2019-02-06T22:06:22.195Z,28.67
2019-02-06T22:08:49.334Z,28.90
2019-02-06T22:11:16.999Z,29.82
2019-02-06T22:13:54.870Z,31.45
2019-02-06T22:16:15.229Z,31.17
2019-02-06T22:18:42.806Z,29.72
2019-02-06T22:21:10.308Z,29.10
2019-02-06T22:23:37.908Z,30.75
2019-02-06T22:26:05.069Z,30.82
2019-02-06T22:28:32.957Z,30.55
2019-02-06T22:31:00.851Z,30.15
2019-02-06T22:33:28.183Z,30.85
2019-02-06T22:35:55.222Z,31.42
2019-02-06T22:38:22.419Z,31.05
2019-02-06T22:40:49.595Z,29.27
2019-02-06T22:43:17.219Z,31.17
2019-02-06T22:45:44.888Z,29.32
2019-02-06T22:48:11.983Z,30.82
2019-02-06T22:50:39.376Z,30.88
2019-02-06T22:53:06.759Z,31.80
2019-02-06T22:55:34.259Z,33.35
2019-02-06T22:58:01.426Z,30.37
2019-02-06T23:00:45.170Z,30.30
2019-02-06T23:03:13.074Z,31.87
2019-02-06T23:05:40.529Z,31.05
2019-02-06T23:08:07.812Z,31.52
2019-02-06T23:10:36.857Z,31.97
2019-02-06T23:13:04.410Z,30.48
2019-02-06T23:15:31.891Z,34.73
2019-02-06T23:17:59.203Z,33.20
2019-02-06T23:20:26.731Z,33.00
2019-02-06T23:22:54.106Z,32.60
2019-02-06T23:25:21.458Z,36.03
2019-02-06T23:27:48.602Z,32.95
2019-02-06T23:30:16.102Z,34.18
2019-02-06T23:32:43.922Z,32.65
2019-02-06T23:35:11.219Z,33.90
2019-02-06T23:37:38.412Z,31.62
2019-02-06T23:40:07.707Z,34.65
2019-02-06T23:42:34.917Z,33.00
2019-02-06T23:45:02.451Z,34.65
2019-02-06T23:47:29.570Z,33.30
2019-02-06T23:49:57.147Z,34.85
2019-02-06T23:52:24.379Z,34.70
2019-02-06T23:54:51.495Z,31.90
2019-02-06T23:57:18.605Z,32.45
2019-02-06T23:59:45.994Z,33.63
